Terminal Aerodrome Forecast
Issued by NWS

Home | Current Version | Previous Version | Text Only | Print | Product List | Glossary On
Versions: 1 2 3 4 5 6 7 8 9 10 11 12 13 14 15 16 17 18 19 20 21 22 23 24
000
FTUS45 KREV 282300
TAFTVL
TAF
KTVL 282323Z 2900/2924 05006KT P6SM FEW100 FEW200
     FM290200 VRB03KT P6SM SCT200
     FM292100 04007KT P6SM FEW100 BKN200=

USA.gov is the U.S. government's official web portal to all federal, state and local government web resources and services.